Holloman Air Force Base, New Mexico
Current Conditions -  °F | °C
As of 2:58 AM on Friday 24 Oct 2014 (Local Time) from KHMN Reporting Station
Clear Clear  
Wind Chill: 53°   Ceiling: Unl
Heat Index: 53°   Visibility: 10mi
Dew Point: 47°   Wind: 5mph
Humidity: 79%   Direction: 50°NE
Pressure: 30.19"   Gusts: NA
Location:  32.8635°N, 106.0004°W
Report Text: KHMN 240858Z AUTO 05004KT 10SM CLR 12/08 A3019 RMK AO2 SLP169 T01180083 52003 $
Loading
Personal Weather Stations






























Interactive Weather Map
Tropical Storm Tracking
New forecast layout! Learn more

10-Day Weather Forecast

Advertisements
Track Severe Weather on mobile